Time;durP1;ratioP1;P1;durP2;ratioP2;P2;SDS_P1;SDS_P2;PMS_P1;PMS_P2;Temp;Humidity;BMP_temperature;BMP_pressure;BME280_temperature;BME280_humidity;BME280_pressure;Samples;Min_cycle;Max_cycle;Signal;HPM_P1;HPM_P2
2022/01/12 00:01:05;;;;;;;2.53;1.42;;;;;;;-145.06;0.00;60892.56;4860150;28;20073;-88
2022/01/12 00:03:45;;;;;;;2.08;1.30;;;;;;;-145.06;0.00;60892.56;4859138;28;20033;-88
2022/01/12 00:06:24;;;;;;;;;;;;;;;-145.06;0.00;60892.56;4859844;28;20025;-89
2022/01/12 00:09:07;;;;;;;2.00;1.37;;;;;;;-145.06;0.00;60892.56;4874487;28;20351;-88
2022/01/12 00:11:47;;;;;;;1.60;1.30;;;;;;;-145.06;0.00;60892.56;4873149;28;20041;-88
2022/01/12 00:14:28;;;;;;;1.60;1.10;;;;;;;-145.06;0.00;60892.56;4871228;28;20483;-88
2022/01/12 00:17:08;;;;;;;2.60;1.38;;;;;;;-145.06;0.00;60892.56;4852857;28;20148;-87
2022/01/12 00:19:47;;;;;;;3.00;1.63;;;;;;;-145.06;0.00;60892.56;4857545;28;20041;-88
2022/01/12 00:22:28;;;;;;;2.15;1.90;;;;;;;-145.06;0.00;60892.56;4858873;28;20781;-88
2022/01/12 00:33:53;;;;;;;2.00;1.58;;;;;;;-145.06;0.00;60892.56;4861447;28;20060;-89
2022/01/12 00:36:33;;;;;;;2.92;1.90;;;;;;;-145.06;0.00;60892.56;4858608;28;20029;-88
2022/01/12 00:39:13;;;;;;;3.30;2.00;;;;;;;-145.06;0.00;60892.56;4857070;28;20060;-88
2022/01/12 00:41:53;;;;;;;3.40;1.92;;;;;;;-145.06;0.00;60892.56;4860261;28;20388;-87
2022/01/12 00:44:35;;;;;;;4.07;2.10;;;;;;;-145.06;0.00;60892.56;4862745;28;20024;-88
2022/01/12 00:47:14;;;;;;;2.92;1.92;;;;;;;-145.06;0.00;60892.56;4858269;28;20164;-88
2022/01/12 00:49:53;;;;;;;3.10;2.05;;;;;;;-145.06;0.00;60892.56;4852181;28;20664;-88
2022/01/12 00:52:32;;;;;;;3.50;2.25;;;;;;;-145.06;0.00;60892.56;4857288;28;20030;-89
2022/01/12 00:55:11;;;;;;;2.45;2.10;;;;;;;-145.06;0.00;60892.56;4860820;28;20124;-89
2022/01/12 00:57:51;;;;;;;3.67;2.03;;;;;;;-145.06;0.00;60892.56;4853773;28;20041;-90
2022/01/12 01:00:31;;;;;;;4.22;2.42;;;;;;;-145.06;0.00;60892.56;4855545;28;20045;-88
2022/01/12 01:03:10;;;;;;;2.97;2.20;;;;;;;-145.06;0.00;60892.56;4861996;28;20044;-88
2022/01/12 01:05:49;;;;;;;3.63;2.20;;;;;;;-145.06;0.00;60892.56;4857884;28;20037;-88
2022/01/12 01:08:28;;;;;;;4.07;1.90;;;;;;;187.52;0.00;60892.56;4851280;28;20037;-88
2022/01/12 01:11:07;;;;;;;2.65;1.77;;;;;;;-145.06;0.00;60892.56;4853559;28;20056;-88
2022/01/12 01:13:57;;;;;;;2.90;2.20;;;;;;;1.59;0.00;60892.56;4857289;28;20041;-89
2022/01/12 01:25:50;;;;;;;2.88;1.80;;;;;;;-145.06;0.00;60892.56;4855966;28;20029;-87
2022/01/12 01:28:29;;;;;;;2.53;1.90;;;;;;;2.89;0.00;60892.56;4860436;28;20053;-89
2022/01/12 01:31:08;;;;;;;2.75;1.75;;;;;;;5.49;0.00;60892.56;4854268;28;20037;-87
2022/01/12 01:33:47;;;;;;;2.75;1.85;;;;;;;-145.06;0.00;60892.56;4853851;28;20431;-87
2022/01/12 01:36:28;;;;;;;3.42;1.88;;;;;;;-145.06;0.00;60892.56;4853116;28;20034;-88
2022/01/12 01:39:09;;;;;;;3.00;1.85;;;;;;;1.39;0.00;60892.56;4869062;28;20022;-89
2022/01/12 01:41:57;;;;;;;2.55;1.70;;;;;;;-145.06;0.00;60892.56;4865250;28;20029;-88
2022/01/12 01:53:19;;;;;;;3.08;2.10;;;;;;;-145.06;0.00;60892.56;4853158;28;20041;-89
2022/01/12 01:55:58;;;;;;;2.83;2.20;;;;;;;-145.06;0.00;60892.56;4854033;28;20037;-88
2022/01/12 01:58:37;;;;;;;2.43;1.90;;;;;;;-145.06;0.00;60892.56;4845307;28;20029;-88
2022/01/12 02:01:16;;;;;;;3.65;1.95;;;;;;;21.08;0.00;60892.56;4864287;28;20279;-88
2022/01/12 02:03:59;;;;;;;3.65;2.10;;;;;;;-145.06;0.00;60892.56;4854321;28;20041;-89
2022/01/12 02:06:40;;;;;;;2.17;1.67;;;;;;;5.49;0.00;60892.56;4866697;28;20033;-88
2022/01/12 02:09:18;;;;;;;2.45;1.88;;;;;;;10.68;0.00;60892.56;4853951;28;20052;-88
2022/01/12 02:11:57;;;;;;;3.17;2.20;;;;;;;-145.06;0.00;60892.56;4854395;28;20491;-88
2022/01/12 02:14:36;;;;;;;3.57;2.10;;;;;;;-145.06;0.00;60892.56;4854123;28;20033;-88
2022/01/12 02:17:20;;;;;;;2.38;1.73;;;;;;;-145.06;0.00;60892.56;4857753;28;20033;-88
2022/01/12 02:40:38;;;;;;;2.28;1.48;;;;;;;-145.06;0.00;60892.56;4851016;28;20490;-89
2022/01/12 02:43:29;;;;;;;1.52;1.35;;;;;;;5.49;0.00;60892.56;4863771;28;20056;-87
2022/01/12 02:54:57;;;;;;;2.90;1.90;;;;;;;1.35;0.00;60892.56;4850619;28;20033;-88
2022/01/12 02:57:36;;;;;;;2.95;1.88;;;;;;;-145.06;0.00;60892.56;4865716;28;20029;-87
2022/01/12 03:00:18;;;;;;;2.35;1.77;;;;;;;-145.06;0.00;60892.56;4868384;28;20026;-89
2022/01/12 03:03:02;;;;;;;2.38;1.55;;;;;;;1.40;0.00;60892.56;4862823;28;20040;-87
2022/01/12 03:05:47;;;;;;;2.25;1.80;;;;;;;-145.06;0.00;60892.56;4851262;28;20629;-87
2022/01/12 03:08:28;;;;;;;2.50;1.75;;;;;;;1.39;0.00;60892.56;4852708;28;20021;-87
2022/01/12 03:11:07;;;;;;;;;;;;;;;2.89;0.00;60892.56;4854720;28;20037;-88
2022/01/12 03:13:47;;;;;;;2.03;1.38;;;;;;;-145.06;0.00;60892.56;4865478;28;20414;-88
2022/01/12 03:16:28;;;;;;;2.85;1.85;;;;;;;-145.06;0.00;60892.56;4856309;28;20029;-89
2022/01/12 03:19:06;;;;;;;2.38;1.45;;;;;;;1.51;0.00;60892.56;4853899;28;20037;-88
2022/01/12 03:21:45;;;;;;;1.97;1.40;;;;;;;1.50;0.00;60892.56;4849019;28;20452;-87
2022/01/12 03:24:24;;;;;;;2.22;1.50;;;;;;;5.49;0.00;60892.56;4854403;28;20025;-88
2022/01/12 03:27:06;;;;;;;2.47;1.50;;;;;;;-145.06;0.00;60892.56;4852167;28;20045;-88
2022/01/12 03:29:50;;;;;;;1.90;1.48;;;;;;;21.08;0.00;60892.56;4854786;28;20025;-89
2022/01/12 03:32:43;;;;;;;2.55;1.25;;;;;;;21.08;0.00;60892.56;4853816;28;20104;-87
2022/01/12 03:35:35;;;;;;;2.35;1.50;;;;;;;2.89;0.00;60892.56;4867065;28;20037;-89
2022/01/12 03:38:20;;;;;;;2.03;1.30;;;;;;;1.58;0.00;60892.56;4849618;28;20033;-89
2022/01/12 03:40:59;;;;;;;1.88;1.35;;;;;;;-145.06;0.00;60892.56;4855776;28;20101;-88
2022/01/12 03:43:38;;;;;;;2.23;1.47;;;;;;;-145.06;0.00;60892.56;4850677;28;20112;-89
2022/01/12 03:46:20;;;;;;;1.48;1.25;;;;;;;-145.06;0.00;60892.56;4867956;28;20368;-88
2022/01/12 03:48:59;;;;;;;2.55;1.52;;;;;;;1.56;0.00;60892.56;4850797;28;20037;-89
2022/01/12 03:51:38;;;;;;;2.22;1.63;;;;;;;1.59;0.00;60892.56;4852863;28;20033;-88
2022/01/12 03:54:17;;;;;;;2.20;1.57;;;;;;;-145.06;0.00;60892.56;4853199;28;20033;-88
2022/01/12 03:56:59;;;;;;;1.60;1.15;;;;;;;-145.06;0.00;60892.56;4864094;28;20377;-88
2022/01/12 03:59:38;;;;;;;1.73;1.35;;;;;;;1.58;0.00;60892.56;4856146;28;20032;-88
2022/01/12 04:02:17;;;;;;;1.70;1.40;;;;;;;-145.06;0.00;60892.56;4856431;28;20037;-88
2022/01/12 04:05:26;;;;;;;1.80;1.37;;;;;;;2.89;0.00;60892.56;4853223;28;20064;-88
2022/01/12 04:08:19;;;;;;;1.55;1.23;;;;;;;-145.06;0.00;60892.56;4857256;28;20372;-87
2022/01/12 04:11:00;;;;;;;1.63;1.20;;;;;;;187.52;0.00;60892.56;4852292;28;20025;-88
2022/01/12 04:13:42;;;;;;;1.92;1.25;;;;;;;1.59;0.00;60892.56;4850021;28;20037;-87
2022/01/12 04:16:21;;;;;;;2.05;1.25;;;;;;;-145.06;0.00;60892.56;4852657;28;20033;-88
2022/01/12 04:19:00;;;;;;;2.03;1.23;;;;;;;-145.06;0.00;60892.56;4853872;28;20061;-89
2022/01/12 04:21:46;;;;;;;1.77;1.20;;;;;;;-145.06;0.00;60892.56;4852484;28;20030;-88
2022/01/12 04:24:25;;;;;;;1.10;0.90;;;;;;;-145.06;0.00;60892.56;4861701;28;20617;-88
2022/01/12 04:27:05;;;;;;;2.03;1.33;;;;;;;-145.06;0.00;60892.56;4852634;28;20037;-89
2022/01/12 04:29:44;;;;;;;1.30;1.10;;;;;;;-145.06;0.00;60892.56;4857865;28;20041;-87
2022/01/12 04:32:24;;;;;;;1.77;1.10;;;;;;;-145.06;0.00;60892.56;4857247;28;20068;-88
2022/01/12 04:35:04;;;;;;;1.13;0.90;;;;;;;-145.06;0.00;60892.56;4858745;28;20064;-89
2022/01/12 04:37:43;;;;;;;;;;;;;;;-145.06;0.00;60892.56;4863577;28;20033;-89
2022/01/12 04:40:22;;;;;;;0.95;0.80;;;;;;;1.69;0.00;60892.56;4858519;28;21821;-88
2022/01/12 04:43:01;;;;;;;1.33;1.00;;;;;;;-145.06;0.00;60892.56;4870337;28;20033;-89
2022/01/12 04:48:52;;;;;;;1.08;0.90;;;;;;;5.49;0.00;60892.56;4866177;28;20029;-88
2022/01/12 04:51:33;;;;;;;0.85;0.80;;;;;;;-145.06;0.00;60892.56;4858537;28;20029;-87
2022/01/12 04:54:12;;;;;;;1.10;0.98;;;;;;;-145.06;0.00;60892.56;4869193;28;20033;-89
2022/01/12 04:56:51;;;;;;;1.05;0.95;;;;;;;-145.06;0.00;60892.56;4875024;28;20037;-89
2022/01/12 04:59:32;;;;;;;1.50;0.95;;;;;;;-145.06;0.00;60892.56;4857893;28;20056;-88
2022/01/12 05:06:25;;;;;;;1.17;0.98;;;;;;;-145.06;0.00;60892.56;4858089;28;20029;-88
2022/01/12 05:14:00;;;;;;;2.00;1.27;;;;;;;-145.06;0.00;60892.56;4856192;28;20356;-88
2022/01/12 05:16:39;;;;;;;1.27;1.13;;;;;;;-145.06;0.00;60892.56;4853791;28;20033;-88
2022/01/12 05:19:18;;;;;;;1.83;1.27;;;;;;;-145.06;0.00;60892.56;4857788;28;20026;-89
2022/01/12 05:21:57;;;;;;;1.48;1.10;;;;;;;-145.06;0.00;60892.56;4849621;28;20033;-88
2022/01/12 05:24:36;;;;;;;1.57;1.20;;;;;;;2.89;0.00;60892.56;4863856;28;20606;-89
2022/01/12 05:27:15;;;;;;;1.23;1.13;;;;;;;-145.06;0.00;60892.56;4858421;28;20029;-87
2022/01/12 05:29:54;;;;;;;1.77;1.15;;;;;;;-145.06;0.00;60892.56;4859664;28;20088;-89
2022/01/12 05:32:33;;;;;;;1.15;1.08;;;;;;;-145.06;0.00;60892.56;4853330;28;20108;-88
2022/01/12 05:35:14;;;;;;;1.60;1.08;;;;;;;-145.06;0.00;60892.56;4854907;28;20041;-87
2022/01/12 05:37:54;;;;;;;1.10;1.00;;;;;;;-145.06;0.00;60892.56;4851787;28;20045;-87
2022/01/12 05:40:32;;;;;;;2.40;1.10;;;;;;;-145.06;0.00;60892.56;4852616;28;20026;-89
2022/01/12 05:43:13;;;;;;;1.23;0.93;;;;;;;-145.06;0.00;60892.56;4855516;28;20034;-88
2022/01/12 05:45:54;;;;;;;1.20;1.10;;;;;;;-145.06;0.00;60892.56;4853771;28;20276;-88
2022/01/12 05:51:30;;;;;;;1.83;1.27;;;;;;;-145.06;0.00;60892.56;4855282;28;20029;-87
2022/01/12 05:54:10;;;;;;;1.42;1.13;;;;;;;187.52;0.00;60892.56;4853756;28;20037;-88
2022/01/12 05:56:49;;;;;;;1.10;1.00;;;;;;;-145.06;0.00;60892.56;4854067;28;20112;-88
2022/01/12 05:59:29;;;;;;;1.08;0.98;;;;;;;-145.06;0.00;60892.56;4854693;28;20029;-88
2022/01/12 06:02:08;;;;;;;0.85;0.73;;;;;;;-145.06;0.00;60892.56;4854547;28;20041;-87
2022/01/12 06:04:46;;;;;;;1.20;0.97;;;;;;;-145.06;0.00;60892.56;4852064;28;20034;-87
2022/01/12 06:07:25;;;;;;;1.60;1.00;;;;;;;-145.06;0.00;60892.56;4854642;28;20272;-87
2022/01/12 06:10:05;;;;;;;1.20;1.10;;;;;;;-145.06;0.00;60892.56;4854688;28;20264;-88
2022/01/12 06:12:44;;;;;;;1.10;0.90;;;;;;;-145.06;0.00;60892.56;4850517;28;20037;-88
2022/01/12 06:15:24;;;;;;;1.73;1.17;;;;;;;-145.06;0.00;60892.56;4851224;28;20403;-87
2022/01/12 06:18:03;;;;;;;1.25;0.90;;;;;;;-145.06;0.00;60892.56;4850103;28;20112;-87
2022/01/12 06:20:42;;;;;;;1.52;1.02;;;;;;;-145.06;0.00;60892.56;4864792;28;20029;-87
2022/01/12 06:23:21;;;;;;;1.08;0.98;;;;;;;-145.06;0.00;60892.56;4850755;28;20034;-87
2022/01/12 06:26:00;;;;;;;1.83;1.20;;;;;;;-145.06;0.00;60892.56;4852745;28;20678;-88
2022/01/12 06:28:42;;;;;;;1.80;1.40;;;;;;;-145.06;0.00;60892.56;4853208;28;20280;-86
2022/01/12 06:31:26;;;;;;;4.60;1.20;;;;;;;-145.06;0.00;60892.56;4858608;28;20040;-88
2022/01/12 06:34:05;;;;;;;2.88;1.98;;;;;;;-145.06;0.00;60892.56;4847717;28;20064;-88
2022/01/12 06:36:45;;;;;;;3.45;2.20;;;;;;;-145.06;0.00;60892.56;4853345;28;20839;-87
2022/01/12 06:39:25;;;;;;;4.03;2.83;;;;;;;-145.06;0.00;60892.56;4862089;28;20041;-86
2022/01/12 06:42:04;;;;;;;4.28;2.50;;;;;;;-145.06;0.00;60892.56;4872746;28;20041;-88
2022/01/12 06:44:47;;;;;;;3.97;2.40;;;;;;;-145.06;0.00;60892.56;4851097;28;20037;-86
2022/01/12 06:47:25;;;;;;;3.33;2.20;;;;;;;-145.06;0.00;60892.56;4854263;28;20475;-87
2022/01/12 06:50:06;;;;;;;3.92;2.25;;;;;;;-145.06;0.00;60892.56;4853238;28;20065;-87
2022/01/12 06:52:44;;;;;;;2.45;1.83;;;;;;;-145.06;0.00;60892.56;4853634;28;20625;-88
2022/01/12 06:55:24;;;;;;;2.40;1.90;;;;;;;-145.06;0.00;60892.56;4853926;28;20041;-86
2022/01/12 06:58:03;;;;;;;1.67;1.40;;;;;;;-145.06;0.00;60892.56;4852564;28;20295;-87
2022/01/12 07:00:42;;;;;;;1.73;1.60;;;;;;;-145.06;0.00;60892.56;4846164;28;20109;-86
2022/01/12 07:03:21;;;;;;;2.33;1.55;;;;;;;-145.06;0.00;60892.56;4851120;28;20279;-88
2022/01/12 07:06:01;;;;;;;1.33;1.20;;;;;;;-145.06;0.00;60892.56;4853116;28;20029;-87
2022/01/12 07:08:40;;;;;;;1.80;1.38;;;;;;;-145.06;0.00;60892.56;4853739;28;20029;-88
2022/01/12 07:11:19;;;;;;;1.92;1.35;;;;;;;-145.06;0.00;60892.56;4851376;28;20037;-87
2022/01/12 07:13:58;;;;;;;2.03;1.48;;;;;;;-145.06;0.00;60892.56;4846192;28;20491;-87
2022/01/12 07:16:37;;;;;;;1.92;1.15;;;;;;;-145.06;0.00;60892.56;4853919;28;20069;-89
2022/01/12 07:19:16;;;;;;;1.83;1.35;;;;;;;-145.06;0.00;60892.56;4862631;28;20033;-88
2022/01/12 07:21:55;;;;;;;2.75;1.45;;;;;;;-145.06;0.00;60892.56;4853186;28;20048;-88
2022/01/12 07:24:34;;;;;;;1.50;1.25;;;;;;;-145.06;0.00;60892.56;4852540;28;20451;-87
2022/01/12 07:27:13;;;;;;;2.17;1.50;;;;;;;-145.06;0.00;60892.56;4852765;28;20029;-89
2022/01/12 07:29:52;;;;;;;1.60;1.50;;;;;;;-145.06;0.00;60892.56;4861510;28;20537;-89
2022/01/12 07:32:31;;;;;;;2.05;1.40;;;;;;;2.69;0.00;60892.56;4853016;28;20041;-89
2022/01/12 07:35:10;;;;;;;2.53;1.67;;;;;;;-145.06;0.00;60892.56;4851492;28;20376;-87
2022/01/12 07:37:49;;;;;;;2.55;1.77;;;;;;;-145.06;0.00;60892.56;4852067;28;20112;-88
2022/01/12 07:40:29;;;;;;;1.70;1.58;;;;;;;-145.06;0.00;60892.56;4859475;28;20033;-88
2022/01/12 07:43:08;;;;;;;;;;;;;;;-145.06;0.00;60892.56;4851027;28;20037;-88
2022/01/12 07:45:47;;;;;;;1.90;1.42;;;;;;;2.81;0.00;60892.56;4850374;28;20003;-87
2022/01/12 07:48:26;;;;;;;1.20;1.10;;;;;;;-145.06;0.00;60892.56;4867025;28;20490;-87
2022/01/12 07:51:05;;;;;;;2.70;1.50;;;;;;;-145.06;0.00;60892.56;4858498;28;20264;-88
2022/01/12 07:53:45;;;;;;;1.90;1.50;;;;;;;-145.06;0.00;60892.56;4852724;28;20287;-87
2022/01/12 07:56:24;;;;;;;1.98;1.23;;;;;;;-145.06;0.00;60892.56;4861445;28;20064;-86
2022/01/12 07:59:03;;;;;;;1.77;1.38;;;;;;;21.08;0.00;60892.56;4862589;28;20034;-87
2022/01/12 08:01:41;;;;;;;2.20;1.20;;;;;;;21.08;0.00;60892.56;4868151;28;20033;-87
2022/01/12 08:04:20;;;;;;;1.65;1.27;;;;;;;21.08;0.00;60892.56;4858623;28;20029;-87
2022/01/12 08:07:00;;;;;;;1.60;1.33;;;;;;;-145.06;0.00;60892.56;4867361;28;20037;-88
2022/01/12 08:09:40;;;;;;;2.97;1.40;;;;;;;10.68;0.00;60892.56;4852460;28;20025;-88
2022/01/12 08:12:19;;;;;;;2.08;1.10;;;;;;;187.52;0.00;60892.56;4877328;28;20304;-87
2022/01/12 08:14:58;;;;;;;1.80;1.17;;;;;;;-145.06;0.00;60892.56;4855316;28;20029;-87
2022/01/12 08:17:38;;;;;;;1.35;1.10;;;;;;;5.49;0.00;60892.56;4859174;28;20025;-87
2022/01/12 08:20:22;;;;;;;2.20;1.10;;;;;;;-145.06;0.00;60892.56;4863301;28;20041;-86
2022/01/12 08:23:01;;;;;;;2.00;1.33;;;;;;;-145.06;0.00;60892.56;4860375;28;20041;-88
2022/01/12 08:25:40;;;;;;;3.53;1.40;;;;;;;5.49;0.00;60892.56;4860304;28;20033;-87
2022/01/12 08:28:18;;;;;;;2.35;1.05;;;;;;;-145.06;0.00;60892.56;4859729;28;20041;-88
2022/01/12 08:30:57;;;;;;;2.22;1.35;;;;;;;-145.06;0.00;60892.56;4860013;28;20482;-87
2022/01/12 08:33:36;;;;;;;5.93;1.63;;;;;;;-145.06;0.00;60892.56;4869534;28;20383;-88
2022/01/12 08:36:16;;;;;;;2.70;1.48;;;;;;;-145.06;0.00;60892.56;4858809;28;20124;-87
2022/01/12 08:38:55;;;;;;;3.08;1.30;;;;;;;-145.06;0.00;60892.56;4864162;28;20029;-87
2022/01/12 08:41:35;;;;;;;3.78;1.25;;;;;;;-145.06;0.00;60892.56;4853545;28;20486;-88
2022/01/12 08:44:15;;;;;;;2.13;1.10;;;;;;;-145.06;0.00;60892.56;4854052;28;20471;-89
2022/01/12 08:46:53;;;;;;;2.70;1.40;;;;;;;-145.06;0.00;60892.56;4871462;28;20048;-88
2022/01/12 08:49:32;;;;;;;4.13;1.27;;;;;;;-145.06;0.00;60892.56;4842039;28;20264;-88
2022/01/12 08:52:11;;;;;;;4.17;1.30;;;;;;;-145.06;0.00;60892.56;4854018;28;20033;-88
2022/01/12 08:54:51;;;;;;;1.73;1.38;;;;;;;-145.06;0.00;60892.56;4860330;28;20033;-88
2022/01/12 08:57:31;;;;;;;2.40;1.33;;;;;;;-145.06;0.00;60892.56;4859985;28;20034;-88
2022/01/12 09:00:11;;;;;;;2.30;1.67;;;;;;;-145.06;0.00;60892.56;4858534;28;20037;-88
2022/01/12 09:02:50;;;;;;;2.40;1.50;;;;;;;-145.06;0.00;60892.56;4853846;28;20033;-88
2022/01/12 09:05:30;;;;;;;1.83;1.40;;;;;;;-145.06;0.00;60892.56;4854881;28;20112;-88
2022/01/12 09:08:09;;;;;;;2.88;1.80;;;;;;;-145.06;0.00;60892.56;4857606;28;20037;-88
2022/01/12 09:10:48;;;;;;;1.80;1.40;;;;;;;-145.06;0.00;60892.56;4866973;28;20025;-88
2022/01/12 09:13:27;;;;;;;3.57;1.60;;;;;;;-145.06;0.00;60892.56;4854423;28;20038;-88
2022/01/12 09:16:08;;;;;;;2.88;1.60;;;;;;;-145.06;0.00;60892.56;4859048;28;20265;-88
2022/01/12 09:18:47;;;;;;;2.33;1.60;;;;;;;-145.06;0.00;60892.56;4857815;28;20364;-89
2022/01/12 09:21:28;;;;;;;3.40;1.90;;;;;;;-145.06;0.00;60892.56;4856087;28;20633;-88
2022/01/12 09:24:07;;;;;;;2.90;1.80;;;;;;;-145.06;0.00;60892.56;4858799;28;20045;-89
2022/01/12 09:26:46;;;;;;;1.83;1.50;;;;;;;-145.06;0.00;60892.56;4862057;28;20056;-87
2022/01/12 09:29:25;;;;;;;3.10;1.98;;;;;;;-145.06;0.00;60892.56;4856631;28;20284;-87
2022/01/12 09:32:04;;;;;;;3.42;2.22;;;;;;;-145.06;0.00;60892.56;4855247;28;20041;-87
2022/01/12 09:34:44;;;;;;;1.85;1.55;;;;;;;-145.06;0.00;60892.56;4854362;28;20767;-88
2022/01/12 09:37:23;;;;;;;2.70;1.85;;;;;;;-145.06;0.00;60892.56;4856369;28;20073;-88
2022/01/12 09:40:02;;;;;;;3.97;1.80;;;;;;;-145.06;0.00;60892.56;4853053;28;20373;-90
2022/01/12 09:42:43;;;;;;;;;;;;;;;-145.06;0.00;60892.56;4864698;28;20028;-88
2022/01/12 09:45:23;;;;;;;;;;;;;;;-145.06;0.00;60892.56;4855885;28;19917;-88
2022/01/12 09:48:01;;;;;;;;;;;;;;;-145.06;0.00;60892.56;4870735;28;19944;-88
2022/01/12 09:50:41;;;;;;;1.70;1.40;;;;;;;-145.06;0.00;60892.56;4855978;28;20257;-88
2022/01/12 09:53:20;;;;;;;4.28;2.00;;;;;;;-145.06;0.00;60892.56;4851590;28;20275;-87
2022/01/12 09:55:59;;;;;;;2.15;1.40;;;;;;;-145.06;0.00;60892.56;4859334;28;20034;-88
2022/01/12 09:58:38;;;;;;;3.15;1.65;;;;;;;-145.06;0.00;60892.56;4856673;28;20108;-87
2022/01/12 10:01:39;;;;;;;2.47;1.70;;;;;;;-145.06;0.00;60892.56;4855628;28;20029;-87
2022/01/12 10:04:21;;;;;;;2.63;1.85;;;;;;;-145.06;0.00;60892.56;4868152;28;20033;-88
2022/01/12 10:07:02;;;;;;;3.97;2.00;;;;;;;-145.06;0.00;60892.56;4856065;28;20388;-88
2022/01/12 10:09:44;;;;;;;3.67;1.80;;;;;;;-145.06;0.00;60892.56;4855481;28;20748;-89
2022/01/12 10:12:24;;;;;;;2.33;1.67;;;;;;;-145.06;0.00;60892.56;4854999;28;20032;-89
2022/01/12 10:15:13;;;;;;;3.30;2.03;;;;;;;-145.06;0.00;60892.56;4857449;28;20037;-88
2022/01/12 10:17:52;;;;;;;5.03;1.77;;;;;;;-145.06;0.00;60892.56;4853512;28;20108;-88
2022/01/12 10:20:42;;;;;;;3.17;2.17;;;;;;;-145.06;0.00;60892.56;4854358;28;20025;-88
2022/01/12 10:23:22;;;;;;;;;;;;;;;-145.06;0.00;60892.56;4855501;28;20037;-89
2022/01/12 10:26:01;;;;;;;;;;;;;;;-145.06;0.00;60892.56;4855275;28;20314;-89
2022/01/12 10:28:40;;;;;;;2.20;1.38;;;;;;;-145.06;0.00;60892.56;4860265;28;19909;-88
2022/01/12 10:31:19;;;;;;;2.37;1.40;;;;;;;-145.06;0.00;60892.56;4856458;28;20045;-89
2022/01/12 10:34:03;;;;;;;2.20;1.70;;;;;;;-145.06;0.00;60892.56;4855167;28;20475;-88
2022/01/12 10:36:45;;;;;;;3.25;1.80;;;;;;;-145.06;0.00;60892.56;4855482;28;20276;-88
2022/01/12 10:39:26;;;;;;;4.40;2.03;;;;;;;10.68;0.00;60892.56;4851991;28;20037;-89
2022/01/12 10:42:08;;;;;;;2.92;2.35;;;;;;;-145.06;0.00;60892.56;4855133;28;20040;-89
2022/01/12 10:44:50;;;;;;;3.05;2.08;;;;;;;-145.06;0.00;60892.56;4857517;28;20815;-90
2022/01/12 10:47:32;;;;;;;4.13;2.20;;;;;;;-145.06;0.00;60892.56;4849716;28;20536;-89
2022/01/12 10:50:11;;;;;;;3.83;2.60;;;;;;;4.62;0.00;60892.56;4849928;28;20033;-89
2022/01/12 10:52:51;;;;;;;3.10;2.38;;;;;;;-145.06;0.00;60892.56;4855115;28;20049;-89
2022/01/12 10:55:30;;;;;;;3.22;2.40;;;;;;;-145.06;0.00;60892.56;4866631;28;20033;-88
2022/01/12 10:58:19;;;;;;;3.83;2.20;;;;;;;-145.06;0.00;60892.56;4846542;28;20514;-88
2022/01/12 11:00:58;;;;;;;4.05;2.53;;;;;;;-145.06;0.00;60892.56;4855470;28;20037;-89
2022/01/12 11:03:38;;;;;;;2.83;2.08;;;;;;;-145.06;0.00;60892.56;4854450;28;20029;-89
2022/01/12 11:06:17;;;;;;;;;;;;;;;-145.06;0.00;60892.56;4869755;28;20034;-90
2022/01/12 11:08:57;;;;;;;2.58;1.73;;;;;;;-145.06;0.00;60892.56;4867517;28;19913;-90
2022/01/12 11:11:36;;;;;;;3.70;2.00;;;;;;;-145.06;0.00;60892.56;4850070;28;20034;-90
2022/01/12 11:14:15;;;;;;;3.20;1.90;;;;;;;-145.06;0.00;60892.56;4855715;28;20545;-88
2022/01/12 11:16:54;;;;;;;3.00;2.27;;;;;;;-145.06;0.00;60892.56;4858199;28;20037;-89
2022/01/12 11:19:34;;;;;;;3.67;2.40;;;;;;;-145.06;0.00;60892.56;4851851;28;20021;-89
2022/01/12 11:22:34;;;;;;;6.30;2.10;;;;;;;-145.06;0.00;60892.56;4868764;28;20033;-89
2022/01/12 11:25:37;;;;;;;3.05;2.28;;;;;;;-145.06;0.00;60892.56;4870229;28;20033;-88
2022/01/12 11:28:35;;;;;;;3.65;1.92;;;;;;;-145.06;0.00;60892.56;4870187;28;20038;-89
2022/01/12 11:31:21;;;;;;;7.18;2.50;;;;;;;-145.06;0.00;60892.56;4851855;28;20057;-89
2022/01/12 11:34:00;;;;;;;4.68;2.65;;;;;;;-145.06;0.00;60892.56;4867990;28;20032;-90
2022/01/12 11:36:40;;;;;;;5.18;2.50;;;;;;;10.68;0.00;60892.56;4852825;28;20033;-90
2022/01/12 11:39:19;;;;;;;4.63;2.90;;;;;;;-145.06;0.00;60892.56;4854487;28;20041;-89
2022/01/12 11:41:58;;;;;;;4.13;2.55;;;;;;;-145.06;0.00;60892.56;4854396;28;20037;-90
2022/01/12 11:44:38;;;;;;;;;;;;;;;-145.06;0.00;60892.56;4853789;28;20514;-89
2022/01/12 11:47:21;;;;;;;2.95;1.95;;;;;;;-145.06;0.00;60892.56;4865820;28;19952;-89
2022/01/12 11:50:11;;;;;;;4.45;2.47;;;;;;;-145.06;0.00;60892.56;4851260;28;20022;-88
2022/01/12 11:52:49;;;;;;;4.10;2.30;;;;;;;21.08;0.00;60892.56;4853770;28;20037;-88
2022/01/12 11:55:40;;;;;;;4.10;2.40;;;;;;;-145.06;0.00;60892.56;4862381;28;20025;-89
2022/01/12 11:58:20;;;;;;;3.50;2.35;;;;;;;-145.06;0.00;60892.56;4854427;28;20025;-88
2022/01/12 12:00:59;;;;;;;4.13;2.33;;;;;;;-145.06;0.00;60892.56;4854265;28;20113;-89
2022/01/12 12:03:37;;;;;;;5.07;2.45;;;;;;;-145.06;0.00;60892.56;4856710;28;20054;-88
2022/01/12 12:06:20;;;;;;;5.28;3.05;;;;;;;-145.06;0.00;60892.56;4853808;28;20041;-89
2022/01/12 12:09:09;;;;;;;4.00;2.55;;;;;;;-145.06;0.00;60892.56;4852023;28;20030;-88
2022/01/12 12:11:51;;;;;;;5.07;2.78;;;;;;;-145.06;0.00;60892.56;4860497;28;20033;-90
2022/01/12 12:14:30;;;;;;;5.35;3.25;;;;;;;-145.06;0.00;60892.56;4835283;28;20046;-90
2022/01/12 12:17:10;;;;;;;6.65;3.45;;;;;;;-145.06;0.00;60892.56;4845295;28;20072;-88
2022/01/12 12:19:50;;;;;;;5.25;3.05;;;;;;;-145.06;0.00;60892.56;4835537;28;20444;-89
2022/01/12 12:22:32;;;;;;;7.90;3.47;;;;;;;-145.06;0.00;60892.56;4859008;28;20124;-89
2022/01/12 12:25:12;;;;;;;4.85;3.28;;;;;;;21.08;0.00;60892.56;4856236;28;20116;-91
2022/01/12 12:28:01;;;;;;;4.88;3.05;;;;;;;10.68;0.00;60892.56;4864692;28;20032;-90
2022/01/12 12:30:40;;;;;;;5.95;3.28;;;;;;;5.49;0.00;60892.56;4849292;28;20025;-88
2022/01/12 12:33:19;;;;;;;6.80;3.20;;;;;;;-145.06;0.00;60892.56;4856260;28;20033;-89
2022/01/12 12:35:59;;;;;;;5.47;3.20;;;;;;;-145.06;0.00;60892.56;4868946;28;20037;-89
2022/01/12 12:38:38;;;;;;;5.80;3.20;;;;;;;-145.06;0.00;60892.56;4852015;28;20029;-90
2022/01/12 12:41:17;;;;;;;4.97;2.97;;;;;;;-145.06;0.00;60892.56;4864674;28;20049;-89
2022/01/12 12:43:55;;;;;;;6.05;3.60;;;;;;;-145.06;0.00;60892.56;4856289;28;20284;-90
2022/01/12 12:46:34;;;;;;;8.90;4.18;;;;;;;4.86;0.00;60892.56;4854355;28;20049;-90
2022/01/12 12:49:13;;;;;;;7.85;3.88;;;;;;;10.68;0.00;60892.56;4853904;28;20115;-89
2022/01/12 12:52:01;;;;;;;7.47;3.83;;;;;;;-145.06;0.00;60892.56;4858775;28;20132;-89
2022/01/12 12:54:42;;;;;;;6.50;3.70;;;;;;;-145.06;0.00;60892.56;4857435;28;20029;-89
2022/01/12 12:57:21;;;;;;;8.25;3.97;;;;;;;-145.06;0.00;60892.56;4856607;28;20575;-88
2022/01/12 13:00:13;;;;;;;8.80;4.45;;;;;;;-145.06;0.00;60892.56;4856632;28;20034;-88
2022/01/12 13:02:55;;;;;;;8.82;4.55;;;;;;;-145.06;0.00;60892.56;4854295;28;20045;-88
2022/01/12 13:05:38;;;;;;;11.43;5.25;;;;;;;-145.06;0.00;60892.56;4855650;28;20033;-88
2022/01/12 13:08:18;;;;;;;12.50;5.70;;;;;;;-145.06;0.00;60892.56;4856522;28;20368;-89
2022/01/12 13:11:06;;;;;;;10.17;5.87;;;;;;;-145.06;0.00;60892.56;4858276;28;20037;-89
2022/01/12 13:13:59;;;;;;;11.25;5.88;;;;;;;-145.06;0.00;60892.56;4874683;28;20617;-88
2022/01/12 13:16:45;;;;;;;13.18;6.15;;;;;;;5.49;0.00;60892.56;4870013;28;20475;-88
2022/01/12 13:22:36;;;;;;;9.25;4.95;;;;;;;-145.06;0.00;60892.56;4856048;28;20065;-89
2022/01/12 13:25:17;;;;;;;10.80;5.72;;;;;;;-145.06;0.00;60892.56;4856271;28;20037;-90
2022/01/12 13:27:58;;;;;;;11.02;5.78;;;;;;;-145.06;0.00;60892.56;4857651;28;20033;-89
2022/01/12 13:30:48;;;;;;;11.05;5.43;;;;;;;-145.06;0.00;60892.56;4855534;28;20030;-88
2022/01/12 13:33:37;;;;;;;10.98;5.90;;;;;;;-145.06;0.00;60892.56;4844897;28;20033;-88
2022/01/12 13:36:21;;;;;;;8.35;5.03;;;;;;;-145.06;0.00;60892.56;4860141;28;20033;-88
2022/01/12 13:39:03;;;;;;;9.45;5.43;;;;;;;-145.06;0.00;60892.56;4854941;28;20041;-88
2022/01/12 13:41:45;;;;;;;8.88;4.95;;;;;;;5.49;0.00;60892.56;4859908;28;20029;-87
2022/01/12 13:44:24;;;;;;;10.13;5.70;;;;;;;-145.06;0.00;60892.56;4860588;28;20037;-88
2022/01/12 13:49:46;;;;;;;13.85;6.80;;;;;;;5.16;0.00;60892.56;4865887;28;20057;-89
2022/01/12 13:52:25;;;;;;;12.93;7.00;;;;;;;-145.06;0.00;60892.56;4852715;28;20025;-88